sensor_id;sensor_type;location;lat;lon;timestamp;temperature;humidity
3186;DHT22;1604;53.700;10.252;2023-03-01T00:00:08;-2.40;99.90
3186;DHT22;1604;53.700;10.252;2023-03-01T00:03:10;-2.40;99.90
3186;DHT22;1604;53.700;10.252;2023-03-01T00:06:12;-2.40;99.90
3186;DHT22;1604;53.700;10.252;2023-03-01T00:09:15;-2.40;99.90
3186;DHT22;1604;53.700;10.252;2023-03-01T00:12:18;-2.40;99.90
3186;DHT22;1604;53.700;10.252;2023-03-01T00:15:20;-2.40;99.90
3186;DHT22;1604;53.700;10.252;2023-03-01T00:18:22;-2.50;99.90
3186;DHT22;1604;53.700;10.252;2023-03-01T00:21:25;-2.50;99.90
3186;DHT22;1604;53.700;10.252;2023-03-01T00:24:27;-2.50;99.90
3186;DHT22;1604;53.700;10.252;2023-03-01T00:27:30;-2.50;99.90
3186;DHT22;1604;53.700;10.252;2023-03-01T00:30:33;-2.50;99.90
3186;DHT22;1604;53.700;10.252;2023-03-01T00:33:35;-2.50;99.90
3186;DHT22;1604;53.700;10.252;2023-03-01T00:36:37;-2.60;99.90
3186;DHT22;1604;53.700;10.252;2023-03-01T00:39:40;-2.60;99.90
3186;DHT22;1604;53.700;10.252;2023-03-01T00:42:44;-2.60;99.90
3186;DHT22;1604;53.700;10.252;2023-03-01T00:45:45;-2.60;99.90
3186;DHT22;1604;53.700;10.252;2023-03-01T00:48:47;-2.60;99.90
3186;DHT22;1604;53.700;10.252;2023-03-01T00:51:49;-2.60;99.90
3186;DHT22;1604;53.700;10.252;2023-03-01T00:54:52;-2.70;99.90
3186;DHT22;1604;53.700;10.252;2023-03-01T00:57:55;-2.70;99.90
3186;DHT22;1604;53.700;10.252;2023-03-01T01:00:57;-2.70;99.90
3186;DHT22;1604;53.700;10.252;2023-03-01T01:04:01;-2.70;99.90
3186;DHT22;1604;53.700;10.252;2023-03-01T01:07:03;-2.70;99.90
3186;DHT22;1604;53.700;10.252;2023-03-01T01:10:06;-2.70;99.90
3186;DHT22;1604;53.700;10.252;2023-03-01T01:13:10;-2.70;99.90
3186;DHT22;1604;53.700;10.252;2023-03-01T01:16:12;-2.80;99.90
3186;DHT22;1604;53.700;10.252;2023-03-01T01:19:16;-2.80;99.90
3186;DHT22;1604;53.700;10.252;2023-03-01T01:22:18;-2.80;99.90
3186;DHT22;1604;53.700;10.252;2023-03-01T01:25:20;-2.80;99.90
3186;DHT22;1604;53.700;10.252;2023-03-01T01:28:23;-2.80;99.90
3186;DHT22;1604;53.700;10.252;2023-03-01T01:31:26;-2.80;99.90
3186;DHT22;1604;53.700;10.252;2023-03-01T01:34:28;-2.80;99.90
3186;DHT22;1604;53.700;10.252;2023-03-01T01:37:30;-2.80;99.90
3186;DHT22;1604;53.700;10.252;2023-03-01T01:40:33;-2.80;99.90
3186;DHT22;1604;53.700;10.252;2023-03-01T01:43:39;-2.90;99.90
3186;DHT22;1604;53.700;10.252;2023-03-01T01:46:44;-2.90;99.90
3186;DHT22;1604;53.700;10.252;2023-03-01T01:49:49;-2.90;99.90
3186;DHT22;1604;53.700;10.252;2023-03-01T01:52:53;-2.90;99.90
3186;DHT22;1604;53.700;10.252;2023-03-01T01:55:58;-2.90;99.90
3186;DHT22;1604;53.700;10.252;2023-03-01T01:59:04;-2.90;99.90
3186;DHT22;1604;53.700;10.252;2023-03-01T02:02:06;-3.00;99.90
3186;DHT22;1604;53.700;10.252;2023-03-01T02:05:14;-3.00;99.90
3186;DHT22;1604;53.700;10.252;2023-03-01T02:08:20;-3.00;99.90
3186;DHT22;1604;53.700;10.252;2023-03-01T02:11:23;-3.00;99.90
3186;DHT22;1604;53.700;10.252;2023-03-01T02:14:27;-3.00;99.90
3186;DHT22;1604;53.700;10.252;2023-03-01T02:17:29;-3.00;99.90
3186;DHT22;1604;53.700;10.252;2023-03-01T02:20:35;-3.00;99.90
3186;DHT22;1604;53.700;10.252;2023-03-01T02:23:39;-3.10;99.90
3186;DHT22;1604;53.700;10.252;2023-03-01T02:26:47;-3.10;99.90
3186;DHT22;1604;53.700;10.252;2023-03-01T02:29:52;-3.10;99.90
3186;DHT22;1604;53.700;10.252;2023-03-01T02:32:56;-3.00;99.90
3186;DHT22;1604;53.700;10.252;2023-03-01T02:36:04;-3.10;99.90
3186;DHT22;1604;53.700;10.252;2023-03-01T02:39:10;-3.10;99.90
3186;DHT22;1604;53.700;10.252;2023-03-01T02:42:17;-3.10;99.90
3186;DHT22;1604;53.700;10.252;2023-03-01T02:45:22;-3.10;99.90
3186;DHT22;1604;53.700;10.252;2023-03-01T02:48:24;-3.10;99.90
3186;DHT22;1604;53.700;10.252;2023-03-01T02:51:38;-3.20;99.90
3186;DHT22;1604;53.700;10.252;2023-03-01T02:54:46;-3.20;99.90
3186;DHT22;1604;53.700;10.252;2023-03-01T02:57:50;-3.20;99.90
3186;DHT22;1604;53.700;10.252;2023-03-01T03:00:54;-3.20;99.90
3186;DHT22;1604;53.700;10.252;2023-03-01T03:03:57;-3.20;99.90
3186;DHT22;1604;53.700;10.252;2023-03-01T03:06:58;-3.20;99.90
3186;DHT22;1604;53.700;10.252;2023-03-01T03:10:02;-3.30;99.90
3186;DHT22;1604;53.700;10.252;2023-03-01T03:13:05;-3.30;99.90
3186;DHT22;1604;53.700;10.252;2023-03-01T03:16:09;-3.30;99.90
3186;DHT22;1604;53.700;10.252;2023-03-01T03:19:11;-3.30;99.90
3186;DHT22;1604;53.700;10.252;2023-03-01T03:22:13;-3.30;99.90
3186;DHT22;1604;53.700;10.252;2023-03-01T03:25:16;-3.30;99.90
3186;DHT22;1604;53.700;10.252;2023-03-01T03:28:18;-3.30;99.90
3186;DHT22;1604;53.700;10.252;2023-03-01T03:31:21;-3.30;99.90
3186;DHT22;1604;53.700;10.252;2023-03-01T03:34:23;-3.30;99.90
3186;DHT22;1604;53.700;10.252;2023-03-01T03:37:25;-3.30;99.90
3186;DHT22;1604;53.700;10.252;2023-03-01T03:40:46;-3.30;99.90
3186;DHT22;1604;53.700;10.252;2023-03-01T03:43:48;-3.30;99.90
3186;DHT22;1604;53.700;10.252;2023-03-01T03:46:51;-3.20;99.90
3186;DHT22;1604;53.700;10.252;2023-03-01T03:49:53;-3.20;99.90
3186;DHT22;1604;53.700;10.252;2023-03-01T03:52:55;-3.20;99.90
3186;DHT22;1604;53.700;10.252;2023-03-01T03:55:57;-3.20;99.90
3186;DHT22;1604;53.700;10.252;2023-03-01T03:58:58;-3.10;99.90
3186;DHT22;1604;53.700;10.252;2023-03-01T04:02:02;-3.10;99.90
3186;DHT22;1604;53.700;10.252;2023-03-01T04:05:04;-3.00;99.90
3186;DHT22;1604;53.700;10.252;2023-03-01T04:08:07;-3.00;99.90
3186;DHT22;1604;53.700;10.252;2023-03-01T04:11:09;-3.00;99.90
3186;DHT22;1604;53.700;10.252;2023-03-01T04:14:29;-2.90;99.90
3186;DHT22;1604;53.700;10.252;2023-03-01T04:17:32;-2.90;99.90
3186;DHT22;1604;53.700;10.252;2023-03-01T04:20:38;-2.80;99.90
3186;DHT22;1604;53.700;10.252;2023-03-01T04:23:40;-2.80;99.90
3186;DHT22;1604;53.700;10.252;2023-03-01T04:26:42;-2.80;99.90
3186;DHT22;1604;53.700;10.252;2023-03-01T04:29:44;-2.80;99.90
3186;DHT22;1604;53.700;10.252;2023-03-01T04:32:47;-2.70;99.90
3186;DHT22;1604;53.700;10.252;2023-03-01T04:35:51;-2.70;99.90
3186;DHT22;1604;53.700;10.252;2023-03-01T04:38:53;-2.60;99.90
3186;DHT22;1604;53.700;10.252;2023-03-01T04:41:55;-2.50;99.90
3186;DHT22;1604;53.700;10.252;2023-03-01T04:44:57;-2.40;99.90
3186;DHT22;1604;53.700;10.252;2023-03-01T04:48:01;-2.40;99.90
3186;DHT22;1604;53.700;10.252;2023-03-01T04:51:03;-2.40;99.90
3186;DHT22;1604;53.700;10.252;2023-03-01T04:54:06;-2.30;99.90
3186;DHT22;1604;53.700;10.252;2023-03-01T04:57:09;-2.30;99.90
3186;DHT22;1604;53.700;10.252;2023-03-01T05:00:14;-2.20;99.90
3186;DHT22;1604;53.700;10.252;2023-03-01T05:03:23;-2.10;99.90
3186;DHT22;1604;53.700;10.252;2023-03-01T05:06:26;-2.00;99.90
3186;DHT22;1604;53.700;10.252;2023-03-01T05:09:30;-2.00;99.90
3186;DHT22;1604;53.700;10.252;2023-03-01T05:12:32;-1.90;99.90
3186;DHT22;1604;53.700;10.252;2023-03-01T05:15:34;-1.90;99.90
3186;DHT22;1604;53.700;10.252;2023-03-01T05:18:38;-1.80;99.90
3186;DHT22;1604;53.700;10.252;2023-03-01T05:21:41;-1.80;99.90
3186;DHT22;1604;53.700;10.252;2023-03-01T05:24:56;-1.70;99.90
3186;DHT22;1604;53.700;10.252;2023-03-01T05:27:58;-1.60;99.90
3186;DHT22;1604;53.700;10.252;2023-03-01T05:31:05;-1.50;99.90
3186;DHT22;1604;53.700;10.252;2023-03-01T05:34:11;-1.50;99.90
3186;DHT22;1604;53.700;10.252;2023-03-01T05:37:13;-1.40;99.90
3186;DHT22;1604;53.700;10.252;2023-03-01T05:40:18;-1.30;99.90
3186;DHT22;1604;53.700;10.252;2023-03-01T05:43:20;-1.30;99.90
3186;DHT22;1604;53.700;10.252;2023-03-01T05:46:22;-1.30;99.90
3186;DHT22;1604;53.700;10.252;2023-03-01T05:49:26;-1.30;99.90
3186;DHT22;1604;53.700;10.252;2023-03-01T05:52:28;-1.30;99.90
3186;DHT22;1604;53.700;10.252;2023-03-01T05:55:30;-1.30;99.90
3186;DHT22;1604;53.700;10.252;2023-03-01T05:58:32;-1.20;99.90
3186;DHT22;1604;53.700;10.252;2023-03-01T06:01:35;-1.20;99.90
3186;DHT22;1604;53.700;10.252;2023-03-01T06:04:38;-1.20;99.90
3186;DHT22;1604;53.700;10.252;2023-03-01T06:07:41;-1.20;99.90
3186;DHT22;1604;53.700;10.252;2023-03-01T06:10:43;-1.20;99.90
3186;DHT22;1604;53.700;10.252;2023-03-01T06:13:45;-1.20;99.90
3186;DHT22;1604;53.700;10.252;2023-03-01T06:16:47;-1.20;99.90
3186;DHT22;1604;53.700;10.252;2023-03-01T06:19:51;-1.20;99.90
3186;DHT22;1604;53.700;10.252;2023-03-01T06:22:53;-1.20;99.90
3186;DHT22;1604;53.700;10.252;2023-03-01T06:25:55;-1.20;99.90
3186;DHT22;1604;53.700;10.252;2023-03-01T06:28:57;-1.20;99.90
3186;DHT22;1604;53.700;10.252;2023-03-01T06:31:59;-1.20;99.90
3186;DHT22;1604;53.700;10.252;2023-03-01T06:35:02;-1.20;99.90
3186;DHT22;1604;53.700;10.252;2023-03-01T06:38:04;-1.20;99.90
3186;DHT22;1604;53.700;10.252;2023-03-01T06:41:07;-1.20;99.90
3186;DHT22;1604;53.700;10.252;2023-03-01T06:44:09;-1.10;99.90
3186;DHT22;1604;53.700;10.252;2023-03-01T06:47:10;-1.10;99.90
3186;DHT22;1604;53.700;10.252;2023-03-01T06:50:15;-1.00;99.90
3186;DHT22;1604;53.700;10.252;2023-03-01T06:53:17;-1.00;99.90
3186;DHT22;1604;53.700;10.252;2023-03-01T06:56:19;-0.90;99.90
3186;DHT22;1604;53.700;10.252;2023-03-01T06:59:21;-0.90;99.90
3186;DHT22;1604;53.700;10.252;2023-03-01T07:02:23;-0.80;99.90
3186;DHT22;1604;53.700;10.252;2023-03-01T07:05:27;-0.70;99.90
3186;DHT22;1604;53.700;10.252;2023-03-01T07:08:29;-0.60;99.90
3186;DHT22;1604;53.700;10.252;2023-03-01T07:11:31;-0.60;99.90
3186;DHT22;1604;53.700;10.252;2023-03-01T07:14:32;-0.50;99.90
3186;DHT22;1604;53.700;10.252;2023-03-01T07:17:34;-0.40;99.90
3186;DHT22;1604;53.700;10.252;2023-03-01T07:20:38;-0.30;99.90
3186;DHT22;1604;53.700;10.252;2023-03-01T07:23:40;-0.30;99.90
3186;DHT22;1604;53.700;10.252;2023-03-01T07:26:41;-0.20;99.90
3186;DHT22;1604;53.700;10.252;2023-03-01T07:29:43;-0.20;99.90
3186;DHT22;1604;53.700;10.252;2023-03-01T07:32:46;-0.10;99.90
3186;DHT22;1604;53.700;10.252;2023-03-01T07:35:55;-0.10;99.90
3186;DHT22;1604;53.700;10.252;2023-03-01T07:38:58;0.00;99.90
3186;DHT22;1604;53.700;10.252;2023-03-01T07:42:02;0.10;99.90
3186;DHT22;1604;53.700;10.252;2023-03-01T07:45:05;0.10;99.90
3186;DHT22;1604;53.700;10.252;2023-03-01T07:48:08;0.20;99.90
3186;DHT22;1604;53.700;10.252;2023-03-01T07:51:11;0.30;99.90
3186;DHT22;1604;53.700;10.252;2023-03-01T07:54:13;0.40;99.90
3186;DHT22;1604;53.700;10.252;2023-03-01T07:57:15;0.70;99.90
3186;DHT22;1604;53.700;10.252;2023-03-01T08:00:17;0.90;99.90
3186;DHT22;1604;53.700;10.252;2023-03-01T08:03:20;1.00;99.90
3186;DHT22;1604;53.700;10.252;2023-03-01T08:06:23;1.30;99.90
3186;DHT22;1604;53.700;10.252;2023-03-01T08:09:25;1.50;99.90
3186;DHT22;1604;53.700;10.252;2023-03-01T08:12:27;1.60;99.90
3186;DHT22;1604;53.700;10.252;2023-03-01T08:15:29;1.80;99.90
3186;DHT22;1604;53.700;10.252;2023-03-01T08:18:31;1.90;99.90
3186;DHT22;1604;53.700;10.252;2023-03-01T08:21:35;2.00;99.90
3186;DHT22;1604;53.700;10.252;2023-03-01T08:24:37;2.20;99.90
3186;DHT22;1604;53.700;10.252;2023-03-01T08:27:39;2.30;99.90
3186;DHT22;1604;53.700;10.252;2023-03-01T08:30:41;2.50;99.90
3186;DHT22;1604;53.700;10.252;2023-03-01T08:33:43;2.70;99.90
3186;DHT22;1604;53.700;10.252;2023-03-01T08:36:46;2.80;99.90
3186;DHT22;1604;53.700;10.252;2023-03-01T08:39:49;2.90;99.90
3186;DHT22;1604;53.700;10.252;2023-03-01T08:42:50;3.00;99.90
3186;DHT22;1604;53.700;10.252;2023-03-01T08:45:52;3.00;99.90
3186;DHT22;1604;53.700;10.252;2023-03-01T08:48:54;3.10;99.90
3186;DHT22;1604;53.700;10.252;2023-03-01T08:51:58;3.10;99.90
3186;DHT22;1604;53.700;10.252;2023-03-01T08:55:00;3.20;99.90
3186;DHT22;1604;53.700;10.252;2023-03-01T08:58:02;3.20;99.90
3186;DHT22;1604;53.700;10.252;2023-03-01T09:01:07;3.30;99.90
3186;DHT22;1604;53.700;10.252;2023-03-01T09:04:09;3.30;99.90
3186;DHT22;1604;53.700;10.252;2023-03-01T09:07:13;3.40;99.90
3186;DHT22;1604;53.700;10.252;2023-03-01T09:10:15;3.40;99.90
3186;DHT22;1604;53.700;10.252;2023-03-01T09:13:17;3.50;99.90
3186;DHT22;1604;53.700;10.252;2023-03-01T09:16:21;3.50;99.90
3186;DHT22;1604;53.700;10.252;2023-03-01T09:19:23;3.60;99.90
3186;DHT22;1604;53.700;10.252;2023-03-01T09:22:26;3.60;99.90
3186;DHT22;1604;53.700;10.252;2023-03-01T09:25:28;3.60;99.90
3186;DHT22;1604;53.700;10.252;2023-03-01T09:28:30;3.70;99.90
3186;DHT22;1604;53.700;10.252;2023-03-01T09:31:32;3.70;99.90
3186;DHT22;1604;53.700;10.252;2023-03-01T09:34:34;3.80;99.90
3186;DHT22;1604;53.700;10.252;2023-03-01T09:37:59;3.80;99.90
3186;DHT22;1604;53.700;10.252;2023-03-01T09:41:01;3.90;99.90
3186;DHT22;1604;53.700;10.252;2023-03-01T09:44:09;4.00;99.90
3186;DHT22;1604;53.700;10.252;2023-03-01T09:47:16;4.10;99.90
3186;DHT22;1604;53.700;10.252;2023-03-01T09:50:20;4.10;99.90
3186;DHT22;1604;53.700;10.252;2023-03-01T09:53:27;4.20;99.90
3186;DHT22;1604;53.700;10.252;2023-03-01T09:56:36;4.20;99.90
3186;DHT22;1604;53.700;10.252;2023-03-01T09:59:57;4.30;99.90
3186;DHT22;1604;53.700;10.252;2023-03-01T10:03:12;4.30;99.90
3186;DHT22;1604;53.700;10.252;2023-03-01T10:06:21;4.30;99.90
3186;DHT22;1604;53.700;10.252;2023-03-01T10:09:25;4.30;99.90
3186;DHT22;1604;53.700;10.252;2023-03-01T10:12:34;4.30;99.90
3186;DHT22;1604;53.700;10.252;2023-03-01T10:15:43;4.40;99.90
3186;DHT22;1604;53.700;10.252;2023-03-01T10:18:47;4.40;99.90
3186;DHT22;1604;53.700;10.252;2023-03-01T10:21:53;4.40;99.90
3186;DHT22;1604;53.700;10.252;2023-03-01T10:24:58;4.50;99.90
3186;DHT22;1604;53.700;10.252;2023-03-01T10:28:04;4.50;99.90
3186;DHT22;1604;53.700;10.252;2023-03-01T10:31:12;4.60;99.90
3186;DHT22;1604;53.700;10.252;2023-03-01T10:34:16;4.70;99.90
3186;DHT22;1604;53.700;10.252;2023-03-01T10:37:20;4.70;99.90
3186;DHT22;1604;53.700;10.252;2023-03-01T10:40:26;4.80;99.90
3186;DHT22;1604;53.700;10.252;2023-03-01T10:43:44;4.80;99.90
3186;DHT22;1604;53.700;10.252;2023-03-01T10:46:59;4.90;99.90
3186;DHT22;1604;53.700;10.252;2023-03-01T10:50:04;4.90;99.90
3186;DHT22;1604;53.700;10.252;2023-03-01T10:53:22;4.90;99.90
3186;DHT22;1604;53.700;10.252;2023-03-01T10:56:26;5.00;99.90
3186;DHT22;1604;53.700;10.252;2023-03-01T10:59:30;5.10;99.90
3186;DHT22;1604;53.700;10.252;2023-03-01T11:02:32;5.20;99.90
3186;DHT22;1604;53.700;10.252;2023-03-01T11:05:34;5.30;99.90
3186;DHT22;1604;53.700;10.252;2023-03-01T11:08:39;5.40;99.90
3186;DHT22;1604;53.700;10.252;2023-03-01T11:11:42;5.50;99.90
3186;DHT22;1604;53.700;10.252;2023-03-01T11:14:47;5.60;99.90
3186;DHT22;1604;53.700;10.252;2023-03-01T11:17:50;5.70;99.90
3186;DHT22;1604;53.700;10.252;2023-03-01T11:20:53;5.90;99.90
3186;DHT22;1604;53.700;10.252;2023-03-01T11:23:58;6.10;99.90
3186;DHT22;1604;53.700;10.252;2023-03-01T11:27:04;6.30;99.90
3186;DHT22;1604;53.700;10.252;2023-03-01T11:30:18;6.50;99.90
3186;DHT22;1604;53.700;10.252;2023-03-01T11:33:36;6.70;99.90
3186;DHT22;1604;53.700;10.252;2023-03-01T11:36:44;6.90;99.90
3186;DHT22;1604;53.700;10.252;2023-03-01T11:39:55;7.20;99.90
3186;DHT22;1604;53.700;10.252;2023-03-01T11:43:06;7.40;99.90
3186;DHT22;1604;53.700;10.252;2023-03-01T11:46:44;7.60;99.70
3186;DHT22;1604;53.700;10.252;2023-03-01T11:53:38;7.90;98.20
3186;DHT22;1604;53.700;10.252;2023-03-01T11:56:46;8.10;97.10
3186;DHT22;1604;53.700;10.252;2023-03-01T12:00:05;8.30;96.60
3186;DHT22;1604;53.700;10.252;2023-03-01T12:03:25;8.40;95.80
3186;DHT22;1604;53.700;10.252;2023-03-01T12:06:59;8.50;94.60
3186;DHT22;1604;53.700;10.252;2023-03-01T12:10:19;8.70;94.20
3186;DHT22;1604;53.700;10.252;2023-03-01T12:13:58;8.80;94.30
3186;DHT22;1604;53.700;10.252;2023-03-01T12:17:23;8.90;93.90
3186;DHT22;1604;53.700;10.252;2023-03-01T12:20:34;8.90;93.70
3186;DHT22;1604;53.700;10.252;2023-03-01T12:24:01;9.00;94.00
3186;DHT22;1604;53.700;10.252;2023-03-01T12:27:33;9.10;94.30
3186;DHT22;1604;53.700;10.252;2023-03-01T12:30:54;9.20;93.90
3186;DHT22;1604;53.700;10.252;2023-03-01T12:34:06;9.30;93.00
3186;DHT22;1604;53.700;10.252;2023-03-01T12:37:21;9.40;92.20
3186;DHT22;1604;53.700;10.252;2023-03-01T12:40:33;9.60;92.20
3186;DHT22;1604;53.700;10.252;2023-03-01T12:43:48;9.60;90.00
3186;DHT22;1604;53.700;10.252;2023-03-01T12:50:23;9.70;89.10
3186;DHT22;1604;53.700;10.252;2023-03-01T12:53:28;9.70;88.30
3186;DHT22;1604;53.700;10.252;2023-03-01T12:56:34;9.70;87.40
3186;DHT22;1604;53.700;10.252;2023-03-01T12:59:41;9.80;87.10
3186;DHT22;1604;53.700;10.252;2023-03-01T13:02:49;9.80;86.30
3186;DHT22;1604;53.700;10.252;2023-03-01T13:06:07;9.80;85.90
3186;DHT22;1604;53.700;10.252;2023-03-01T13:09:18;9.70;86.70
3186;DHT22;1604;53.700;10.252;2023-03-01T13:12:44;9.80;85.40
3186;DHT22;1604;53.700;10.252;2023-03-01T13:15:46;9.70;83.10
3186;DHT22;1604;53.700;10.252;2023-03-01T13:18:49;9.80;84.00
3186;DHT22;1604;53.700;10.252;2023-03-01T13:22:27;9.70;84.40
3186;DHT22;1604;53.700;10.252;2023-03-01T13:25:30;9.70;84.80
3186;DHT22;1604;53.700;10.252;2023-03-01T13:28:42;9.70;84.50
3186;DHT22;1604;53.700;10.252;2023-03-01T13:31:58;9.80;84.10
3186;DHT22;1604;53.700;10.252;2023-03-01T13:35:44;9.80;78.60
3186;DHT22;1604;53.700;10.252;2023-03-01T13:38:56;9.80;80.20
3186;DHT22;1604;53.700;10.252;2023-03-01T13:41:59;9.90;76.60
3186;DHT22;1604;53.700;10.252;2023-03-01T13:45:01;9.90;75.10
3186;DHT22;1604;53.700;10.252;2023-03-01T13:48:09;9.80;74.50
3186;DHT22;1604;53.700;10.252;2023-03-01T13:51:12;9.80;75.70
3186;DHT22;1604;53.700;10.252;2023-03-01T13:54:21;9.80;75.00
3186;DHT22;1604;53.700;10.252;2023-03-01T13:57:29;9.70;75.80
3186;DHT22;1604;53.700;10.252;2023-03-01T14:00:36;9.70;79.40
3186;DHT22;1604;53.700;10.252;2023-03-01T14:03:41;9.70;80.70
3186;DHT22;1604;53.700;10.252;2023-03-01T14:06:43;9.70;81.00
3186;DHT22;1604;53.700;10.252;2023-03-01T14:09:51;9.60;81.90
3186;DHT22;1604;53.700;10.252;2023-03-01T14:13:00;9.60;82.80
3186;DHT22;1604;53.700;10.252;2023-03-01T14:16:14;9.50;82.50
3186;DHT22;1604;53.700;10.252;2023-03-01T14:19:20;9.40;83.40
3186;DHT22;1604;53.700;10.252;2023-03-01T14:22:27;9.50;85.00
3186;DHT22;1604;53.700;10.252;2023-03-01T14:25:32;9.50;85.20
3186;DHT22;1604;53.700;10.252;2023-03-01T14:28:36;9.60;84.80
3186;DHT22;1604;53.700;10.252;2023-03-01T14:31:39;9.60;83.90
3186;DHT22;1604;53.700;10.252;2023-03-01T14:34:44;9.60;82.40
3186;DHT22;1604;53.700;10.252;2023-03-01T14:37:46;9.60;81.60
3186;DHT22;1604;53.700;10.252;2023-03-01T14:40:54;9.50;83.80
3186;DHT22;1604;53.700;10.252;2023-03-01T14:44:01;9.50;85.40
3186;DHT22;1604;53.700;10.252;2023-03-01T14:47:04;9.50;86.00
3186;DHT22;1604;53.700;10.252;2023-03-01T14:50:09;9.50;86.40
3186;DHT22;1604;53.700;10.252;2023-03-01T14:53:17;9.50;87.70
3186;DHT22;1604;53.700;10.252;2023-03-01T14:56:21;9.40;87.30
3186;DHT22;1604;53.700;10.252;2023-03-01T14:59:23;9.30;87.30
3186;DHT22;1604;53.700;10.252;2023-03-01T15:02:26;9.20;87.70
3186;DHT22;1604;53.700;10.252;2023-03-01T15:05:30;9.20;85.60
3186;DHT22;1604;53.700;10.252;2023-03-01T15:08:33;9.10;82.10
3186;DHT22;1604;53.700;10.252;2023-03-01T15:11:38;9.10;79.90
3186;DHT22;1604;53.700;10.252;2023-03-01T15:14:44;9.00;78.50
3186;DHT22;1604;53.700;10.252;2023-03-01T15:17:53;8.80;77.50
3186;DHT22;1604;53.700;10.252;2023-03-01T15:21:05;8.70;78.60
3186;DHT22;1604;53.700;10.252;2023-03-01T15:24:17;8.60;80.20
3186;DHT22;1604;53.700;10.252;2023-03-01T15:27:24;8.50;80.30
3186;DHT22;1604;53.700;10.252;2023-03-01T15:30:29;8.40;81.20
3186;DHT22;1604;53.700;10.252;2023-03-01T15:33:36;8.30;81.80
3186;DHT22;1604;53.700;10.252;2023-03-01T15:36:42;8.30;82.60
3186;DHT22;1604;53.700;10.252;2023-03-01T15:39:53;8.20;83.70
3186;DHT22;1604;53.700;10.252;2023-03-01T15:42:57;8.10;85.60
3186;DHT22;1604;53.700;10.252;2023-03-01T15:45:59;8.00;86.80
3186;DHT22;1604;53.700;10.252;2023-03-01T15:49:04;7.90;92.10
3186;DHT22;1604;53.700;10.252;2023-03-01T15:52:11;7.80;95.70
3186;DHT22;1604;53.700;10.252;2023-03-01T15:55:19;7.60;97.40
3186;DHT22;1604;53.700;10.252;2023-03-01T15:58:25;7.50;98.40
3186;DHT22;1604;53.700;10.252;2023-03-01T16:01:27;7.30;99.20
3186;DHT22;1604;53.700;10.252;2023-03-01T16:04:29;7.20;99.50
3186;DHT22;1604;53.700;10.252;2023-03-01T16:07:32;7.00;99.90
3186;DHT22;1604;53.700;10.252;2023-03-01T16:10:34;6.90;99.90
3186;DHT22;1604;53.700;10.252;2023-03-01T16:13:37;6.80;99.90
3186;DHT22;1604;53.700;10.252;2023-03-01T16:16:39;6.60;99.90
3186;DHT22;1604;53.700;10.252;2023-03-01T16:19:41;6.40;99.90
3186;DHT22;1604;53.700;10.252;2023-03-01T16:22:43;6.30;99.90
3186;DHT22;1604;53.700;10.252;2023-03-01T16:25:45;6.10;99.90
3186;DHT22;1604;53.700;10.252;2023-03-01T16:28:49;6.00;99.90
3186;DHT22;1604;53.700;10.252;2023-03-01T16:31:51;5.90;99.90
3186;DHT22;1604;53.700;10.252;2023-03-01T16:34:52;5.70;99.90
3186;DHT22;1604;53.700;10.252;2023-03-01T16:37:54;5.60;99.90
3186;DHT22;1604;53.700;10.252;2023-03-01T16:40:56;5.40;99.90
3186;DHT22;1604;53.700;10.252;2023-03-01T16:43:59;5.30;99.90
3186;DHT22;1604;53.700;10.252;2023-03-01T16:47:01;5.10;99.90
3186;DHT22;1604;53.700;10.252;2023-03-01T16:50:04;5.00;99.90
3186;DHT22;1604;53.700;10.252;2023-03-01T16:53:06;4.90;99.90
3186;DHT22;1604;53.700;10.252;2023-03-01T16:56:10;4.70;99.90
3186;DHT22;1604;53.700;10.252;2023-03-01T16:59:13;4.60;99.90
3186;DHT22;1604;53.700;10.252;2023-03-01T17:02:15;4.40;99.90
3186;DHT22;1604;53.700;10.252;2023-03-01T17:05:20;4.30;99.90
3186;DHT22;1604;53.700;10.252;2023-03-01T17:08:24;4.20;99.90
3186;DHT22;1604;53.700;10.252;2023-03-01T17:11:26;4.10;99.90
3186;DHT22;1604;53.700;10.252;2023-03-01T17:14:29;4.00;99.90
3186;DHT22;1604;53.700;10.252;2023-03-01T17:17:31;3.90;99.90
3186;DHT22;1604;53.700;10.252;2023-03-01T17:20:35;3.80;99.90
3186;DHT22;1604;53.700;10.252;2023-03-01T17:23:39;3.70;99.90
3186;DHT22;1604;53.700;10.252;2023-03-01T17:26:41;3.50;99.90
3186;DHT22;1604;53.700;10.252;2023-03-01T17:29:45;3.30;99.90
3186;DHT22;1604;53.700;10.252;2023-03-01T17:32:47;3.10;99.90
3186;DHT22;1604;53.700;10.252;2023-03-01T17:35:49;3.00;99.90
3186;DHT22;1604;53.700;10.252;2023-03-01T17:38:51;2.90;99.90
3186;DHT22;1604;53.700;10.252;2023-03-01T17:41:53;2.80;99.90
3186;DHT22;1604;53.700;10.252;2023-03-01T17:44:57;2.80;99.90
3186;DHT22;1604;53.700;10.252;2023-03-01T17:48:00;2.80;99.90
3186;DHT22;1604;53.700;10.252;2023-03-01T17:51:05;2.80;99.90
3186;DHT22;1604;53.700;10.252;2023-03-01T17:54:07;2.80;99.90
3186;DHT22;1604;53.700;10.252;2023-03-01T17:57:09;2.80;99.90
3186;DHT22;1604;53.700;10.252;2023-03-01T18:00:15;2.80;99.90
3186;DHT22;1604;53.700;10.252;2023-03-01T18:03:17;2.80;99.90
3186;DHT22;1604;53.700;10.252;2023-03-01T18:06:23;2.80;99.90
3186;DHT22;1604;53.700;10.252;2023-03-01T18:09:26;2.90;99.90
3186;DHT22;1604;53.700;10.252;2023-03-01T18:12:29;2.90;99.90
3186;DHT22;1604;53.700;10.252;2023-03-01T18:15:32;2.90;99.90
3186;DHT22;1604;53.700;10.252;2023-03-01T18:18:35;2.90;99.90
3186;DHT22;1604;53.700;10.252;2023-03-01T18:21:37;2.90;99.90
3186;DHT22;1604;53.700;10.252;2023-03-01T18:24:39;2.90;99.90
3186;DHT22;1604;53.700;10.252;2023-03-01T18:27:41;2.80;99.90
3186;DHT22;1604;53.700;10.252;2023-03-01T18:30:44;2.90;99.90
3186;DHT22;1604;53.700;10.252;2023-03-01T18:33:47;2.90;99.90
3186;DHT22;1604;53.700;10.252;2023-03-01T18:36:50;2.80;99.90
3186;DHT22;1604;53.700;10.252;2023-03-01T18:39:53;2.80;99.90
3186;DHT22;1604;53.700;10.252;2023-03-01T18:42:55;2.80;99.90
3186;DHT22;1604;53.700;10.252;2023-03-01T18:45:58;2.80;99.90
3186;DHT22;1604;53.700;10.252;2023-03-01T18:49:00;2.80;99.90
3186;DHT22;1604;53.700;10.252;2023-03-01T18:52:02;2.70;99.90
3186;DHT22;1604;53.700;10.252;2023-03-01T18:55:05;2.70;99.90
3186;DHT22;1604;53.700;10.252;2023-03-01T18:58:07;2.70;99.90
3186;DHT22;1604;53.700;10.252;2023-03-01T19:01:14;2.70;99.90
3186;DHT22;1604;53.700;10.252;2023-03-01T19:04:16;2.70;99.90
3186;DHT22;1604;53.700;10.252;2023-03-01T19:07:18;2.70;99.90
3186;DHT22;1604;53.700;10.252;2023-03-01T19:10:20;2.70;99.90
3186;DHT22;1604;53.700;10.252;2023-03-01T19:13:22;2.70;99.90
3186;DHT22;1604;53.700;10.252;2023-03-01T19:16:27;2.70;99.90
3186;DHT22;1604;53.700;10.252;2023-03-01T19:19:29;2.80;99.90
3186;DHT22;1604;53.700;10.252;2023-03-01T19:22:31;2.70;99.90
3186;DHT22;1604;53.700;10.252;2023-03-01T19:25:33;2.70;99.90
3186;DHT22;1604;53.700;10.252;2023-03-01T19:28:35;2.70;99.90
3186;DHT22;1604;53.700;10.252;2023-03-01T19:31:38;2.70;99.90
3186;DHT22;1604;53.700;10.252;2023-03-01T19:34:40;2.70;99.90
3186;DHT22;1604;53.700;10.252;2023-03-01T19:37:42;2.70;99.90
3186;DHT22;1604;53.700;10.252;2023-03-01T19:40:44;2.70;99.90
3186;DHT22;1604;53.700;10.252;2023-03-01T19:43:46;2.70;99.90
3186;DHT22;1604;53.700;10.252;2023-03-01T19:46:50;2.70;99.90
3186;DHT22;1604;53.700;10.252;2023-03-01T19:49:52;2.70;99.90
3186;DHT22;1604;53.700;10.252;2023-03-01T19:52:54;2.70;99.90
3186;DHT22;1604;53.700;10.252;2023-03-01T19:55:56;2.70;99.90
3186;DHT22;1604;53.700;10.252;2023-03-01T19:58:59;2.70;99.90
3186;DHT22;1604;53.700;10.252;2023-03-01T20:02:05;2.70;99.90
3186;DHT22;1604;53.700;10.252;2023-03-01T20:05:08;2.60;99.90